Terminal Aerodrome Forecast
Issued by NWS

Home | Current Version | Previous Version | Text Only | Print | Product List | Glossary On
Versions: 1 2 3 4 5 6 7 8 9 10 11 12 13
000
FTUS43 KMPX 281737
TAFAXN
TAF
KAXN 281737Z 2818/2918 18018G26KT P6SM FEW060 BKN180
     FM290100 19009KT P6SM VCSH BKN100
     FM290500 19005KT P6SM VCSH OVC050
     FM290900 VRB04KT P6SM -SHRA VCTS OVC025CB
     FM291200 35012G20KT 4SM -RA BR OVC008=

USA.gov is the U.S. government's official web portal to all federal, state and local government web resources and services.